Time;durP1;ratioP1;P1;durP2;ratioP2;P2;SDS_P1;SDS_P2;PMS_P1;PMS_P2;Temp;Humidity;BMP_temperature;BMP_pressure;BME280_temperature;BME280_humidity;BME280_pressure;Samples;Min_cycle;Max_cycle;Signal;HPM_P1;HPM_P2
2021/01/21 00:01:03;;;;;;;30.00;7.30;;;;;;;-16.95;100.00;101089.52;1798393;79;21330;-77
2021/01/21 00:03:33;;;;;;;8.83;7.63;;;;;;;-16.93;100.00;101099.90;1775658;80;21542;-78
2021/01/21 00:06:02;;;;;;;17.43;8.47;;;;;;;-16.93;100.00;101099.47;1798359;79;21284;-77
2021/01/21 00:08:30;;;;;;;14.10;8.60;;;;;;;-16.91;100.00;101091.73;1775659;79;21286;-77
2021/01/21 00:10:59;;;;;;;16.43;8.13;;;;;;;-16.92;100.00;101102.52;1804824;79;21220;-78
2021/01/21 00:13:27;;;;;;;10.23;6.80;;;;;;;-16.92;100.00;101097.34;1790971;80;21204;-77
2021/01/21 00:15:55;;;;;;;5.43;4.03;;;;;;;-16.91;100.00;101089.15;1770553;78;21347;-78
2021/01/21 00:18:23;;;;;;;8.00;6.00;;;;;;;-16.93;100.00;101099.90;1737408;81;21335;-77
2021/01/21 00:20:51;;;;;;;8.67;5.17;;;;;;;-16.90;100.00;101096.94;1744382;82;21254;-77
2021/01/21 00:23:19;;;;;;;5.50;3.83;;;;;;;-16.87;100.00;101090.53;1744463;81;21224;-77
2021/01/21 00:25:50;;;;;;;12.37;3.93;;;;;;;-16.86;100.00;101092.25;1744380;82;21352;-77
2021/01/21 00:28:19;;;;;;;11.00;6.83;;;;;;;-16.83;100.00;101092.28;1744389;82;21307;-77
2021/01/21 00:30:46;;;;;;;7.67;5.43;;;;;;;-16.82;100.00;101091.45;1744273;82;21173;-77
2021/01/21 00:33:14;;;;;;;9.63;6.23;;;;;;;-16.82;100.00;101088.86;1773595;81;21366;-77
2021/01/21 00:35:44;;;;;;;8.00;5.07;;;;;;;-16.82;100.00;101075.92;1775122;80;21268;-78
2021/01/21 00:38:11;;;;;;;10.43;4.40;;;;;;;-16.79;100.00;101075.52;1775014;80;21612;-77
2021/01/21 00:40:41;;;;;;;11.80;4.40;;;;;;;-16.78;100.00;101077.25;1775167;80;21339;-78
2021/01/21 00:43:08;;;;;;;9.73;5.97;;;;;;;-16.73;100.00;101075.21;1775072;80;21270;-77
2021/01/21 00:45:37;;;;;;;9.33;5.87;;;;;;;-16.66;100.00;101067.09;1775148;80;21289;-77
2021/01/21 00:48:08;;;;;;;7.17;4.47;;;;;;;-16.61;100.00;101056.39;1747590;80;21206;-77
2021/01/21 00:50:36;;;;;;;10.67;6.53;;;;;;;-16.53;100.00;101048.77;1775384;80;21201;-78
2021/01/21 00:53:06;;;;;;;9.57;5.90;;;;;;;-16.50;100.00;101039.33;1771243;80;21278;-77
2021/01/21 00:55:34;;;;;;;10.40;7.27;;;;;;;-16.50;100.00;101039.33;1775172;80;21652;-77
2021/01/21 00:58:02;;;;;;;21.47;9.27;;;;;;;-16.40;100.00;101044.63;1775257;80;21332;-76
2021/01/21 01:00:30;;;;;;;21.13;7.80;;;;;;;-16.32;100.00;101045.19;1775414;80;21407;-77
2021/01/21 01:02:58;;;;;;;10.37;4.33;;;;;;;-16.28;100.00;101065.53;1775440;80;22266;-77
2021/01/21 01:05:29;;;;;;;8.50;6.10;;;;;;;-16.23;100.00;101070.36;1775291;80;21364;-76
2021/01/21 01:07:57;;;;;;;7.50;4.67;;;;;;;-16.18;100.00;101066.52;1775375;80;21225;-77
2021/01/21 01:10:27;;;;;;;11.97;6.20;;;;;;;-16.10;100.00;101066.20;1768885;80;21435;-78
2021/01/21 01:12:57;;;;;;;17.87;9.23;;;;;;;-16.10;100.00;101066.20;1734643;81;21310;-78
2021/01/21 01:15:28;;;;;;;12.50;7.13;;;;;;;-16.01;100.00;101073.23;1755122;79;21830;-77
2021/01/21 01:17:55;;;;;;;5.53;4.97;;;;;;;-16.01;100.00;101073.23;1744601;82;21338;-78
2021/01/21 01:20:23;;;;;;;6.97;3.30;;;;;;;-16.02;100.00;101068.89;1737902;81;21426;-76
2021/01/21 01:22:52;;;;;;;10.27;6.57;;;;;;;-16.07;100.00;101068.41;1736513;80;22846;-77
2021/01/21 01:25:21;;;;;;;6.43;4.77;;;;;;;-16.07;100.00;101068.41;1705659;82;21309;-77
2021/01/21 01:27:49;;;;;;;6.07;4.43;;;;;;;-16.03;100.00;101074.94;1736826;82;21375;-77
2021/01/21 01:30:19;;;;;;;12.97;6.27;;;;;;;-16.03;100.00;101074.94;1760570;81;21335;-77
2021/01/21 01:32:48;;;;;;;4.07;3.73;;;;;;;-16.06;100.00;101071.47;1767049;81;21495;-78
2021/01/21 01:35:19;;;;;;;8.40;3.53;;;;;;;-16.08;100.00;101069.25;1766821;80;21485;-76
2021/01/21 01:37:47;;;;;;;11.93;5.07;;;;;;;-16.08;100.00;101069.25;1773177;81;21451;-77
2021/01/21 01:40:17;;;;;;;7.13;5.70;;;;;;;-16.10;100.00;101062.32;1772514;80;21854;-78
2021/01/21 01:42:48;;;;;;;6.45;4.15;;;;;;;-16.11;100.00;101065.34;1770188;81;25076;-78
2021/01/21 01:45:19;;;;;;;9.07;5.20;;;;;;;-16.07;100.00;101063.23;1772664;81;21384;-78
2021/01/21 01:47:48;;;;;;;6.77;3.73;;;;;;;-16.07;100.00;101063.23;1772367;79;21440;-77
2021/01/21 01:50:20;;;;;;;;;;;;;;;-16.04;100.00;101062.82;1736449;82;21483;-77
2021/01/21 01:52:48;;;;;;;3.73;3.23;;;;;;;-16.06;100.00;101058.52;1727948;83;21794;-78
2021/01/21 01:55:26;;;;;;;7.93;4.63;;;;;;;-16.04;100.00;101058.50;1853284;76;22217;-77
2021/01/21 01:58:01;;;;;;;4.83;3.07;;;;;;;-16.09;100.00;101059.76;1851519;77;20973;-76
2021/01/21 02:00:31;;;;;;;6.73;4.60;;;;;;;-16.03;100.00;101062.84;1851518;77;21822;-76
2021/01/21 02:03:02;;;;;;;3.83;3.40;;;;;;;-15.96;100.00;101058.62;1855885;77;21396;-77
2021/01/21 02:05:34;;;;;;;5.30;4.80;;;;;;;-15.93;100.00;101056.94;1856462;77;21891;-77
2021/01/21 02:08:02;;;;;;;4.63;4.20;;;;;;;-15.93;100.00;101054.35;1856486;77;21298;-77
2021/01/21 02:10:33;;;;;;;4.37;3.07;;;;;;;-15.94;100.00;101051.30;1843888;77;21442;-77
2021/01/21 02:13:40;;;;;;;6.23;3.60;;;;;;;-15.95;100.00;101050.87;1755412;81;21398;-76
2021/01/21 02:16:34;;;;;;;4.83;2.93;;;;;;;-15.93;100.00;101052.20;1811254;77;22730;-77
2021/01/21 02:19:28;;;;;;;5.97;4.40;;;;;;;-16.12;100.00;101058.41;1782933;80;20997;-77
2021/01/21 02:22:40;;;;;;;4.27;3.87;;;;;;;-16.12;100.00;101058.41;1783181;80;21871;-77
2021/01/21 02:25:30;;;;;;;3.47;3.20;;;;;;;-16.19;100.00;101057.88;1715072;82;21256;-78
2021/01/21 02:28:15;;;;;;;4.37;3.30;;;;;;;-16.22;100.00;101054.37;1714904;80;20999;-77
2021/01/21 02:30:55;;;;;;;4.53;3.97;;;;;;;-16.23;100.00;101047.45;1714955;83;21318;-76
2021/01/21 02:33:45;;;;;;;9.57;5.47;;;;;;;-16.27;100.00;101056.49;1714951;83;21343;-78
2021/01/21 02:36:20;;;;;;;4.55;3.55;;;;;;;-16.29;100.00;101058.16;1715121;83;21866;-77
2021/01/21 02:38:48;;;;;;;6.27;4.87;;;;;;;-16.31;100.00;101059.86;1715039;83;21058;-78
2021/01/21 02:41:17;;;;;;;16.80;4.40;;;;;;;-16.33;100.00;101054.23;1715098;83;21375;-79
2021/01/21 02:43:52;;;;;;;3.27;2.97;;;;;;;-16.36;100.00;101048.56;1714933;83;21364;-78
2021/01/21 02:46:27;;;;;;;11.23;6.33;;;;;;;-16.30;100.00;101043.92;1846628;76;23295;-78
2021/01/21 02:48:58;;;;;;;9.67;4.57;;;;;;;-16.29;100.00;101050.83;1816815;79;20901;-78
2021/01/21 02:51:40;;;;;;;6.37;3.90;;;;;;;-16.20;100.00;101046.20;1817149;79;21437;-77
2021/01/21 02:54:46;;;;;;;9.30;4.67;;;;;;;-16.20;100.00;101046.20;1810023;79;21371;-78
2021/01/21 02:57:35;;;;;;;5.30;3.80;;;;;;;-16.18;100.00;101045.80;1816878;78;21158;-77
2021/01/21 03:00:09;;;;;;;9.87;5.13;;;;;;;-16.18;100.00;101045.39;1817069;79;21324;-76
2021/01/21 03:02:48;;;;;;;3.03;2.80;;;;;;;-16.15;100.00;101046.70;1730082;81;21321;-78
2021/01/21 03:05:17;;;;;;;5.53;4.47;;;;;;;-16.15;100.00;101046.70;1729383;83;21425;-77
2021/01/21 03:07:45;;;;;;;4.23;3.83;;;;;;;-16.03;100.00;101047.73;1729509;83;21452;-78
2021/01/21 03:10:19;;;;;;;4.27;2.90;;;;;;;-15.96;100.00;101042.64;1727663;83;21427;-77
2021/01/21 03:13:18;;;;;;;3.50;3.20;;;;;;;-15.96;100.00;101042.64;1725461;83;21390;-77
2021/01/21 03:15:47;;;;;;;4.17;3.37;;;;;;;-15.89;100.00;101037.12;1690859;84;21579;-78
2021/01/21 03:18:17;;;;;;;6.93;4.73;;;;;;;-15.79;100.00;101041.57;1682011;85;21802;-76
2021/01/21 03:20:45;;;;;;;7.63;5.87;;;;;;;-15.71;100.00;101034.70;1709545;84;21181;-77
2021/01/21 03:23:15;;;;;;;4.13;3.83;;;;;;;-15.71;100.00;101034.70;1682168;84;21328;-79
2021/01/21 03:25:45;;;;;;;3.60;3.17;;;;;;;-15.68;100.00;101042.52;1705890;84;21405;-78
2021/01/21 03:28:14;;;;;;;4.40;4.00;;;;;;;-15.59;100.00;101039.60;1709597;84;21327;-78
2021/01/21 03:30:43;;;;;;;9.27;4.43;;;;;;;-15.54;100.00;101040.53;1659392;85;21629;-77
2021/01/21 03:33:11;;;;;;;9.83;5.37;;;;;;;-15.54;100.00;101040.53;1685221;85;21423;-77
2021/01/21 03:35:41;;;;;;;8.50;4.97;;;;;;;-15.50;100.00;101036.67;1678868;85;21566;-79
2021/01/21 03:38:09;;;;;;;5.87;5.27;;;;;;;-15.41;100.00;101038.49;1682483;85;21424;-77
2021/01/21 03:40:39;;;;;;;4.70;4.20;;;;;;;-15.38;100.00;101033.34;1702887;83;21710;-78
2021/01/21 03:43:07;;;;;;;3.27;3.00;;;;;;;-15.28;100.00;101033.00;1712579;83;21619;-78
2021/01/21 03:45:46;;;;;;;11.93;5.57;;;;;;;-15.25;100.00;101027.84;1853564;76;22808;-79
2021/01/21 03:48:14;;;;;;;12.70;3.87;;;;;;;-15.19;100.00;101033.11;1784172;80;20995;-77
2021/01/21 03:51:01;;;;;;;4.43;2.20;;;;;;;-15.14;100.00;101029.24;1856593;77;21602;-78
2021/01/21 03:53:30;;;;;;;7.03;3.90;;;;;;;-15.07;100.00;101029.73;1856676;77;21673;-77
2021/01/21 03:55:59;;;;;;;9.17;3.13;;;;;;;-15.07;100.00;101029.73;1851741;77;21492;-77
2021/01/21 03:58:29;;;;;;;2.77;2.53;;;;;;;-14.90;100.00;101029.90;1856576;77;21974;-77
2021/01/21 04:00:59;;;;;;;2.53;2.40;;;;;;;-14.90;100.00;101029.90;1851715;77;21494;-79
2021/01/21 04:03:28;;;;;;;4.57;3.57;;;;;;;-14.80;100.00;101032.12;1856755;77;22243;-76
2021/01/21 04:05:59;;;;;;;6.40;4.57;;;;;;;-14.80;100.00;101032.12;1856456;77;21570;-77
2021/01/21 04:08:28;;;;;;;6.43;3.83;;;;;;;-14.74;100.00;101027.00;1856527;77;22125;-78
2021/01/21 04:10:58;;;;;;;8.07;3.87;;;;;;;-14.70;100.00;101026.16;1830226;77;21458;-77
2021/01/21 04:13:29;;;;;;;7.33;4.50;;;;;;;-14.65;100.00;101020.57;1820142;77;21655;-77
2021/01/21 04:15:59;;;;;;;10.00;5.73;;;;;;;-14.60;100.00;101026.67;1823022;77;21801;-78
2021/01/21 04:18:27;;;;;;;6.33;3.40;;;;;;;-14.53;100.00;101026.26;1823123;78;21544;-78
2021/01/21 04:20:57;;;;;;;16.60;7.17;;;;;;;-14.41;100.00;101020.25;1742658;82;21483;-78
2021/01/21 04:23:25;;;;;;;12.83;5.13;;;;;;;-14.41;100.00;101020.25;1742712;82;21747;-79
2021/01/21 04:25:55;;;;;;;9.03;5.97;;;;;;;-14.36;100.00;101022.05;1743359;82;21803;-77
2021/01/21 04:28:24;;;;;;;18.03;5.57;;;;;;;-14.31;100.00;101021.20;1743249;82;22452;-77
2021/01/21 04:30:52;;;;;;;6.57;5.43;;;;;;;-14.27;100.00;101023.80;1743289;82;21711;-78
2021/01/21 04:33:20;;;;;;;4.80;3.43;;;;;;;-14.22;100.00;101028.59;1760905;81;21730;-78
2021/01/21 04:35:50;;;;;;;6.97;3.47;;;;;;;-14.18;100.00;101026.88;1760445;81;22285;-79
2021/01/21 04:38:18;;;;;;;4.80;4.13;;;;;;;-14.13;100.00;101029.08;1760654;81;21705;-78
2021/01/21 04:41:08;;;;;;;7.03;3.77;;;;;;;-14.00;100.00;101021.80;1846650;76;22752;-78
2021/01/21 04:43:52;;;;;;;11.40;5.43;;;;;;;-13.99;100.00;101026.12;1812136;79;20992;-78
2021/01/21 04:46:21;;;;;;;6.67;3.97;;;;;;;-13.91;100.00;101030.08;1700458;82;22691;-79
2021/01/21 04:48:51;;;;;;;8.33;4.53;;;;;;;-13.85;100.00;101026.19;1677218;84;21671;-78
2021/01/21 04:51:20;;;;;;;7.70;3.93;;;;;;;-13.82;100.00;101023.61;1700501;84;22272;-78
2021/01/21 04:54:00;;;;;;;9.00;4.63;;;;;;;-13.69;100.00;101037.95;1848563;77;22493;-77
2021/01/21 04:56:39;;;;;;;8.30;4.03;;;;;;;-13.70;100.00;101031.90;1807384;78;20946;-80
2021/01/21 04:59:27;;;;;;;7.00;4.57;;;;;;;-13.57;100.00;101030.20;1815536;79;22745;-78
2021/01/21 05:01:56;;;;;;;6.83;4.13;;;;;;;-13.54;100.00;101025.02;1784057;80;21048;-77
2021/01/21 05:04:25;;;;;;;4.37;3.43;;;;;;;-13.46;100.00;101021.98;1788793;80;22024;-77
2021/01/21 05:07:13;;;;;;;5.37;3.33;;;;;;;-13.37;100.00;101036.75;1784385;80;21633;-79
2021/01/21 05:09:41;;;;;;;8.63;3.33;;;;;;;-13.33;100.00;101034.61;1788506;80;21695;-77
2021/01/21 05:12:13;;;;;;;5.37;3.60;;;;;;;-13.30;100.00;101027.20;1784005;79;21773;-78
2021/01/21 05:15:21;;;;;;;11.13;5.07;;;;;;;-13.16;100.00;101037.64;1839071;77;22863;-78
2021/01/21 05:18:07;;;;;;;7.43;4.33;;;;;;;-13.11;100.00;101036.78;1779505;80;20882;-78
2021/01/21 05:20:46;;;;;;;7.20;3.93;;;;;;;-13.04;100.00;101029.41;1776291;80;21676;-78
2021/01/21 05:23:38;;;;;;;7.00;5.37;;;;;;;-12.93;100.00;101039.83;1812204;77;23123;-77
2021/01/21 05:26:15;;;;;;;6.50;3.97;;;;;;;-12.91;100.00;101038.09;1774852;80;20879;-78
2021/01/21 05:28:48;;;;;;;9.50;5.07;;;;;;;-12.84;100.00;101032.46;1751304;80;21610;-78
2021/01/21 05:31:19;;;;;;;12.57;4.30;;;;;;;-12.76;100.00;101039.85;1767972;80;21769;-77
2021/01/21 05:33:49;;;;;;;8.27;4.93;;;;;;;-12.68;100.00;101034.63;1768747;80;21707;-79
2021/01/21 05:36:37;;;;;;;6.80;4.17;;;;;;;-12.57;100.00;101051.11;1881486;76;22359;-77
2021/01/21 05:39:25;;;;;;;15.27;5.40;;;;;;;-12.49;100.00;101038.10;1853511;77;22600;-77
2021/01/21 05:42:15;;;;;;;6.03;4.23;;;;;;;-12.36;100.00;101046.77;1820537;78;20996;-75
2021/01/21 05:44:45;;;;;;;7.60;3.80;;;;;;;-12.36;100.00;101046.77;1766641;78;21816;-77
2021/01/21 05:47:34;;;;;;;9.53;4.20;;;;;;;-12.24;100.00;101052.83;1809431;77;22090;-77
2021/01/21 05:50:04;;;;;;;8.13;4.03;;;;;;;-12.22;100.00;101050.22;1770391;81;20955;-77
2021/01/21 05:52:36;;;;;;;11.28;6.22;;;;;;;-12.17;100.00;101048.47;1770568;81;21712;-77
2021/01/21 05:55:08;;;;;;;6.97;5.23;;;;;;;-12.12;100.00;101045.87;1770321;81;20978;-78
2021/01/21 05:57:41;;;;;;;15.87;4.77;;;;;;;-12.06;100.00;101044.53;1743687;82;20946;-78
2021/01/21 06:00:11;;;;;;;13.93;4.20;;;;;;;-11.89;100.00;101052.29;1739904;81;21651;-78
2021/01/21 06:02:42;;;;;;;8.43;4.92;;;;;;;-11.89;100.00;101052.29;1744183;82;20970;-79
2021/01/21 06:05:21;;;;;;;7.20;4.17;;;;;;;-11.83;100.00;101056.17;1744120;81;20954;-77
2021/01/21 06:07:51;;;;;;;9.40;5.33;;;;;;;-11.82;100.00;101060.53;1744653;81;21662;-77
2021/01/21 06:10:21;;;;;;;11.13;3.70;;;;;;;-11.78;100.00;101043.13;1745053;81;21630;-80
2021/01/21 06:12:59;;;;;;;8.40;5.43;;;;;;;-11.67;100.00;101056.98;1804187;77;22623;-81
2021/01/21 06:15:27;;;;;;;6.30;4.27;;;;;;;-11.66;100.00;101067.86;1778598;80;20883;-80
2021/01/21 06:17:55;;;;;;;10.27;5.70;;;;;;;-11.61;100.00;101055.67;1778806;80;22633;-81
2021/01/21 06:20:28;;;;;;;6.93;5.10;;;;;;;-11.57;100.00;101061.75;1744165;80;20981;-79
2021/01/21 06:23:04;;;;;;;10.93;4.77;;;;;;;-11.50;100.00;101059.09;1698235;80;20993;-78
2021/01/21 06:25:34;;;;;;;11.43;6.17;;;;;;;-11.40;100.00;101057.31;1778444;80;20938;-78
2021/01/21 06:28:03;;;;;;;5.20;3.30;;;;;;;-11.35;100.00;101059.47;1778642;80;20998;-78
2021/01/21 06:30:31;;;;;;;9.27;4.53;;;;;;;-11.28;100.00;101051.14;1746208;80;21867;-80
2021/01/21 06:33:07;;;;;;;8.27;4.27;;;;;;;-11.21;100.00;101049.38;1746883;80;21044;-76
2021/01/21 06:36:00;;;;;;;9.03;5.63;;;;;;;-11.09;100.00;101049.30;1778896;80;21029;-79
2021/01/21 06:38:40;;;;;;;9.23;5.42;;;;;;;-10.98;100.00;101049.23;1745157;80;20934;-77
2021/01/21 06:41:19;;;;;;;17.40;5.93;;;;;;;-10.87;100.00;101047.84;1762217;81;21057;-77
2021/01/21 06:43:47;;;;;;;11.03;4.87;;;;;;;-10.79;100.00;101050.83;1737900;81;21329;-79
2021/01/21 06:46:17;;;;;;;6.63;3.63;;;;;;;-10.68;100.00;101066.88;1761929;81;21009;-79
2021/01/21 06:48:48;;;;;;;8.90;4.47;;;;;;;-10.59;100.00;101066.80;1733443;81;21029;-79
2021/01/21 06:51:18;;;;;;;8.97;4.40;;;;;;;-10.51;100.00;101063.69;1732296;81;21547;-79
2021/01/21 06:53:48;;;;;;;5.83;4.93;;;;;;;-10.38;100.00;101063.14;1746592;81;21002;-81
2021/01/21 06:56:16;;;;;;;7.03;4.53;;;;;;;-10.28;100.00;101053.44;1759379;81;21204;-76
2021/01/21 06:58:53;;;;;;;7.87;4.27;;;;;;;-10.25;100.00;101052.97;1748900;81;21053;-77
2021/01/21 07:01:43;;;;;;;16.13;5.93;;;;;;;-10.10;100.00;101061.09;1847606;76;22731;-76
2021/01/21 07:04:18;;;;;;;11.63;5.63;;;;;;;-10.11;100.00;101073.73;1778276;79;20906;-75
2021/01/21 07:09:27;;;;;;;11.70;4.50;;;;;;;-10.03;100.00;101066.69;1745367;80;21111;-79
2021/01/21 07:11:58;;;;;;;13.97;5.47;;;;;;;-9.95;100.00;101058.75;1746734;82;21006;-80
2021/01/21 07:14:36;;;;;;;5.17;3.23;;;;;;;-9.80;100.00;101074.29;1892229;76;22684;-77
2021/01/21 07:17:06;;;;;;;9.33;4.37;;;;;;;-9.76;100.00;101069.89;1791734;77;20925;-81
2021/01/21 07:19:41;;;;;;;6.90;4.87;;;;;;;-9.66;100.00;101064.98;1819427;78;21650;-78
2021/01/21 07:22:20;;;;;;;8.90;4.37;;;;;;;-9.63;100.00;101065.37;1812942;78;21044;-77
2021/01/21 07:25:03;;;;;;;8.93;5.37;;;;;;;-9.61;100.00;101066.24;1804667;78;21005;-77
2021/01/21 07:27:33;;;;;;;8.05;4.53;;;;;;;-9.56;100.00;101058.75;1792772;80;21066;-76
2021/01/21 07:30:25;;;;;;;11.75;4.62;;;;;;;-9.47;100.00;101059.08;1807593;78;20973;-78
2021/01/21 07:33:26;;;;;;;4.03;3.50;;;;;;;-9.39;100.00;101053.28;1757958;81;21205;-70
2021/01/21 07:35:54;;;;;;;9.43;4.03;;;;;;;-9.31;100.00;101058.86;1791049;80;21127;-70
2021/01/21 07:38:48;;;;;;;4.70;3.90;;;;;;;-9.23;100.00;101055.70;1790581;80;21005;-70
2021/01/21 07:41:38;;;;;;;8.00;5.30;;;;;;;-9.17;100.00;101040.78;1792468;78;21135;-70
2021/01/21 07:44:06;;;;;;;20.87;7.83;;;;;;;-9.12;100.00;101035.45;1756307;81;21171;-72
2021/01/21 07:46:34;;;;;;;15.93;9.23;;;;;;;-9.07;100.00;101040.64;1754701;81;21823;-70
2021/01/21 07:49:23;;;;;;;14.83;7.13;;;;;;;-9.01;100.00;101028.73;1748133;81;20993;-73
2021/01/21 07:52:03;;;;;;;8.53;5.07;;;;;;;-8.87;100.00;101024.18;1834900;76;22742;-69
2021/01/21 07:54:45;;;;;;;14.30;6.33;;;;;;;-8.82;100.00;101026.71;1785642;79;21008;-72
2021/01/21 07:57:21;;;;;;;9.27;5.27;;;;;;;-8.72;100.00;101021.75;1771269;79;21660;-72
2021/01/21 08:00:04;;;;;;;14.37;7.93;;;;;;;-8.61;100.00;101020.26;1815061;78;20976;-71
2021/01/21 08:02:51;;;;;;;15.00;6.80;;;;;;;-8.48;100.00;101021.80;1809677;77;21044;-72
2021/01/21 08:05:22;;;;;;;9.47;5.33;;;;;;;-8.36;100.00;101027.67;1814497;79;21051;-70
2021/01/21 08:07:56;;;;;;;10.70;6.13;;;;;;;-8.22;100.00;101025.20;1809091;79;21623;-75
2021/01/21 08:10:28;;;;;;;13.80;6.13;;;;;;;-8.11;100.00;101025.47;1805866;79;21365;-72
2021/01/21 08:13:00;;;;;;;3.53;3.23;;;;;;;-8.03;100.00;101027.51;1689957;82;21059;-71
2021/01/21 08:15:36;;;;;;;11.63;5.23;;;;;;;-7.89;100.00;101028.11;1830770;76;22731;-71
2021/01/21 08:18:05;;;;;;;11.67;6.27;;;;;;;-7.80;100.00;101031.00;1797385;79;20992;-72
2021/01/21 08:20:34;;;;;;;12.67;7.00;;;;;;;-7.69;100.00;101030.78;1788601;79;21854;-72
2021/01/21 08:23:04;;;;;;;5.00;4.17;;;;;;;-7.58;100.00;101022.69;1797142;79;21028;-71
2021/01/21 08:25:43;;;;;;;11.67;5.80;;;;;;;-7.48;100.00;101019.83;1805787;77;21041;-70
2021/01/21 08:28:20;;;;;;;8.93;5.07;;;;;;;-7.38;100.00;101020.52;1774835;80;21012;-70
2021/01/21 08:30:55;;;;;;;9.07;5.50;;;;;;;-7.26;100.00;101025.50;1864247;75;22775;-70
2021/01/21 08:33:28;;;;;;;10.40;5.23;;;;;;;-7.23;100.00;101014.04;1858769;77;20913;-71
2021/01/21 08:36:04;;;;;;;5.17;4.37;;;;;;;-7.16;100.00;101018.26;1858777;77;21201;-71
2021/01/21 08:38:36;;;;;;;11.70;6.70;;;;;;;-7.14;100.00;101009.88;1840508;77;20961;-71
2021/01/21 08:41:04;;;;;;;10.70;5.73;;;;;;;-7.13;100.00;101012.09;1822605;77;20932;-71
2021/01/21 08:43:32;;;;;;;6.80;3.77;;;;;;;-7.14;100.00;101012.52;1828046;77;21000;-73
2021/01/21 08:46:01;;;;;;;5.90;4.93;;;;;;;-7.15;100.00;101020.42;1827456;78;20981;-73
2021/01/21 08:48:31;;;;;;;8.70;5.67;;;;;;;-7.12;100.00;101021.68;1829381;77;22060;-70
2021/01/21 08:50:59;;;;;;;13.60;7.23;;;;;;;-7.10;100.00;101019.45;1835265;77;20958;-73
2021/01/21 08:53:29;;;;;;;11.57;6.17;;;;;;;-7.07;100.00;101011.47;1802819;78;20975;-74
2021/01/21 08:55:58;;;;;;;14.27;6.70;;;;;;;-7.02;100.00;101000.86;1779822;78;21246;-72
2021/01/21 08:58:32;;;;;;;11.17;4.47;;;;;;;-6.98;100.00;101009.08;1763681;81;20948;-72
2021/01/21 09:01:07;;;;;;;11.13;5.33;;;;;;;-6.98;100.00;101013.02;1770699;79;22125;-75
2021/01/21 09:03:45;;;;;;;9.10;4.93;;;;;;;-7.02;100.00;101006.58;1763261;80;21682;-71
2021/01/21 09:06:15;;;;;;;7.90;4.10;;;;;;;-6.98;100.00;101010.39;1786915;80;21555;-72
2021/01/21 09:08:56;;;;;;;12.83;8.20;;;;;;;-6.95;100.00;101011.64;1805645;78;20998;-71
2021/01/21 09:11:34;;;;;;;11.10;5.80;;;;;;;-6.90;100.00;101013.72;1718527;83;21149;-71
2021/01/21 09:14:15;;;;;;;11.00;6.97;;;;;;;-6.80;100.00;101006.91;1842623;77;22805;-73
2021/01/21 09:16:54;;;;;;;7.37;5.67;;;;;;;-6.78;100.00;101003.80;1827598;77;21590;-74
2021/01/21 09:19:33;;;;;;;11.13;5.97;;;;;;;-6.72;100.00;100999.25;1734081;81;22710;-72
2021/01/21 09:22:14;;;;;;;12.40;6.03;;;;;;;-6.55;100.00;101005.42;1852741;76;22375;-72
2021/01/21 09:25:05;;;;;;;17.07;6.70;;;;;;;-6.57;100.00;101001.09;1700951;83;21007;-73
2021/01/21 09:27:55;;;;;;;12.77;7.40;;;;;;;-6.43;100.00;100997.65;1881619;75;27364;-72
2021/01/21 09:30:24;;;;;;;13.43;6.83;;;;;;;-6.42;100.00;100991.50;1838077;76;21119;-71
2021/01/21 09:32:52;;;;;;;10.70;6.23;;;;;;;-6.38;100.00;100985.70;1850604;77;21199;-72
2021/01/21 09:35:23;;;;;;;12.97;5.13;;;;;;;-6.34;100.00;100980.75;1784376;79;20954;-71
2021/01/21 09:37:57;;;;;;;15.30;7.63;;;;;;;-6.33;100.00;100967.55;1826651;77;20993;-74
2021/01/21 09:40:31;;;;;;;16.67;7.80;;;;;;;-6.31;100.00;100970.16;1831993;77;20994;-72
2021/01/21 09:43:07;;;;;;;8.93;5.70;;;;;;;-6.23;100.00;100962.92;1870757;75;22844;-72
2021/01/21 09:45:36;;;;;;;16.33;7.27;;;;;;;-6.21;100.00;100958.94;1828885;78;21025;-73
2021/01/21 09:48:05;;;;;;;14.93;7.10;;;;;;;-6.17;100.00;100953.53;1830701;78;21359;-71
2021/01/21 09:50:34;;;;;;;9.57;5.47;;;;;;;-6.14;100.00;100948.64;1830676;78;20949;-71
2021/01/21 09:53:02;;;;;;;13.30;7.63;;;;;;;-6.12;100.00;100954.73;1827677;78;21010;-72
2021/01/21 09:55:30;;;;;;;11.63;6.83;;;;;;;-6.07;100.00;100954.15;1836875;77;21085;-78
2021/01/21 09:58:00;;;;;;;14.83;7.03;;;;;;;-6.00;100.00;100952.18;1833433;77;21115;-79
2021/01/21 10:00:28;;;;;;;14.00;7.80;;;;;;;-5.92;100.00;100940.48;1848935;77;21454;-77
2021/01/21 10:02:56;;;;;;;16.70;7.67;;;;;;;-5.87;100.00;100935.56;1798900;78;20974;-78
2021/01/21 10:05:25;;;;;;;14.93;8.00;;;;;;;-5.83;100.00;100938.05;1765861;80;21031;-78
2021/01/21 10:07:53;;;;;;;14.57;8.07;;;;;;;-5.78;100.00;100938.78;1772434;80;20941;-80
2021/01/21 10:10:22;;;;;;;11.60;6.47;;;;;;;-5.73;100.00;100945.24;1771581;80;21013;-82
2021/01/21 10:12:51;;;;;;;13.90;7.17;;;;;;;-5.70;100.00;100949.11;1784821;80;21541;-80
2021/01/21 10:15:19;;;;;;;12.87;7.03;;;;;;;-5.68;100.00;100942.45;1792412;80;21040;-79
2021/01/21 10:17:47;;;;;;;12.10;6.07;;;;;;;-5.68;100.00;100935.44;1789153;80;20926;-81
2021/01/21 10:20:16;;;;;;;13.13;5.83;;;;;;;-5.72;100.00;100930.70;1765470;80;21047;-80
2021/01/21 10:22:44;;;;;;;12.83;5.73;;;;;;;-5.73;100.00;100930.28;1788103;80;21028;-81
2021/01/21 10:25:14;;;;;;;18.13;8.80;;;;;;;-5.75;100.00;100923.35;1785981;80;21385;-79
2021/01/21 10:27:43;;;;;;;14.13;7.63;;;;;;;-5.80;100.00;100916.89;1770768;80;21029;-81
2021/01/21 10:30:15;;;;;;;12.63;6.40;;;;;;;-5.85;100.00;100906.94;1770704;80;21010;-82
2021/01/21 10:32:43;;;;;;;17.50;7.50;;;;;;;-5.89;100.00;100902.68;1773914;80;20992;-83
2021/01/21 10:35:20;;;;;;;17.87;7.70;;;;;;;-5.87;100.00;100901.32;1758054;80;21040;-83
2021/01/21 10:37:48;;;;;;;10.87;5.90;;;;;;;-5.84;100.00;100891.56;1750826;80;22672;-79
2021/01/21 10:40:19;;;;;;;18.93;8.10;;;;;;;-5.79;100.00;100890.08;1780540;79;21001;-81
2021/01/21 10:42:56;;;;;;;16.10;9.20;;;;;;;-5.75;100.00;100907.08;1661393;85;21060;-82
2021/01/21 10:45:44;;;;;;;20.13;7.73;;;;;;;-5.70;100.00;100895.53;1830642;77;22757;-82
2021/01/21 10:48:16;;;;;;;12.80;7.43;;;;;;;-5.72;100.00;100892.50;1778984;79;21540;-73
2021/01/21 10:50:45;;;;;;;14.30;7.73;;;;;;;-5.75;100.00;100903.12;1777954;79;21358;-74
2021/01/21 10:53:15;;;;;;;20.03;9.20;;;;;;;-5.71;100.00;100902.58;1778998;79;21003;-70
2021/01/21 10:55:44;;;;;;;13.43;7.70;;;;;;;-5.68;100.00;100898.98;1778118;79;21473;-72
2021/01/21 10:58:13;;;;;;;19.67;8.67;;;;;;;-5.63;100.00;100887.84;1785337;79;20986;-70
2021/01/21 11:00:44;;;;;;;17.90;8.67;;;;;;;-5.58;100.00;100888.14;1782104;79;20910;-81
2021/01/21 11:03:13;;;;;;;16.60;7.93;;;;;;;-5.50;100.00;100890.98;1792300;79;21146;-82
2021/01/21 11:05:46;;;;;;;21.43;9.83;;;;;;;-5.46;100.00;100886.86;1782203;79;20954;-84
2021/01/21 11:08:14;;;;;;;14.50;7.90;;;;;;;-5.43;100.00;100877.55;1784200;79;21009;-77
2021/01/21 11:10:46;;;;;;;22.20;8.93;;;;;;;-5.39;100.00;100869.94;1789444;79;20906;-84
2021/01/21 11:13:45;;;;;;;12.00;6.00;;;;;;;-5.35;100.00;100862.36;1793584;79;20982;-81
2021/01/21 11:16:50;;;;;;;11.70;7.17;;;;;;;-5.31;100.00;100860.48;1779889;80;21017;-81
2021/01/21 11:19:22;;;;;;;18.73;8.93;;;;;;;-5.28;100.00;100854.23;1795971;79;20986;-82
2021/01/21 11:21:54;;;;;;;13.57;7.93;;;;;;;-5.26;100.00;100860.31;1780701;79;20963;-82
2021/01/21 11:24:23;;;;;;;14.33;7.77;;;;;;;-5.24;100.00;100859.80;1781000;80;20871;-81
2021/01/21 11:26:57;;;;;;;14.73;8.07;;;;;;;-5.27;100.00;100850.23;1781085;80;20911;-82
2021/01/21 11:29:26;;;;;;;8.63;6.33;;;;;;;-5.28;100.00;100852.45;1780819;80;21200;-80
2021/01/21 15:08:41;;;;;;;14.07;5.17;;;;;;;-5.89;100.00;100785.94;1844977;76;22816;-71
2021/01/21 15:11:10;;;;;;;7.30;4.63;;;;;;;-5.87;100.00;100776.20;1815279;78;20980;-71
2021/01/21 15:13:37;;;;;;;11.27;5.57;;;;;;;-5.83;100.00;100772.55;1814932;79;21249;-70
2021/01/21 15:16:06;;;;;;;10.43;6.63;;;;;;;-5.84;100.00;100779.61;1782913;80;21095;-69
2021/01/21 15:18:33;;;;;;;8.50;5.43;;;;;;;-5.84;100.00;100767.75;1782883;79;21087;-71